sensor_id;sensor_type;location;lat;lon;timestamp;P1;durP1;ratioP1;P2;durP2;ratioP2
15202;SDS011;7702;51.046;5.184;2022-07-22T00:00:29;11.33;;;6.30;;
15202;SDS011;7702;51.046;5.184;2022-07-22T00:02:55;10.03;;;5.10;;
15202;SDS011;7702;51.046;5.184;2022-07-22T00:05:20;8.23;;;5.23;;
15202;SDS011;7702;51.046;5.184;2022-07-22T00:07:46;14.10;;;5.40;;
15202;SDS011;7702;51.046;5.184;2022-07-22T00:10:12;9.77;;;5.20;;
15202;SDS011;7702;51.046;5.184;2022-07-22T00:12:38;8.07;;;4.97;;
15202;SDS011;7702;51.046;5.184;2022-07-22T00:15:05;9.63;;;5.93;;
15202;SDS011;7702;51.046;5.184;2022-07-22T00:17:31;7.97;;;5.50;;
15202;SDS011;7702;51.046;5.184;2022-07-22T00:19:57;9.13;;;4.90;;
15202;SDS011;7702;51.046;5.184;2022-07-22T00:22:23;9.30;;;5.00;;
15202;SDS011;7702;51.046;5.184;2022-07-22T00:24:49;10.17;;;5.63;;
15202;SDS011;7702;51.046;5.184;2022-07-22T00:27:14;9.77;;;5.07;;
15202;SDS011;7702;51.046;5.184;2022-07-22T00:29:40;10.30;;;5.60;;
15202;SDS011;7702;51.046;5.184;2022-07-22T00:32:06;10.60;;;5.27;;
15202;SDS011;7702;51.046;5.184;2022-07-22T00:34:32;8.33;;;5.27;;
15202;SDS011;7702;51.046;5.184;2022-07-22T00:36:57;10.97;;;4.87;;
15202;SDS011;7702;51.046;5.184;2022-07-22T00:39:23;8.03;;;5.13;;
15202;SDS011;7702;51.046;5.184;2022-07-22T00:41:49;11.37;;;6.50;;
15202;SDS011;7702;51.046;5.184;2022-07-22T00:44:15;8.97;;;5.30;;
15202;SDS011;7702;51.046;5.184;2022-07-22T00:46:41;11.10;;;5.17;;
15202;SDS011;7702;51.046;5.184;2022-07-22T00:49:07;7.77;;;4.67;;
15202;SDS011;7702;51.046;5.184;2022-07-22T00:51:33;11.97;;;5.17;;
15202;SDS011;7702;51.046;5.184;2022-07-22T00:54:00;9.60;;;4.60;;
15202;SDS011;7702;51.046;5.184;2022-07-22T00:56:27;10.87;;;4.60;;
15202;SDS011;7702;51.046;5.184;2022-07-22T00:58:56;8.07;;;4.33;;
15202;SDS011;7702;51.046;5.184;2022-07-22T01:01:24;11.73;;;4.77;;
15202;SDS011;7702;51.046;5.184;2022-07-22T01:03:50;12.00;;;4.53;;
15202;SDS011;7702;51.046;5.184;2022-07-22T01:06:17;7.83;;;3.83;;
15202;SDS011;7702;51.046;5.184;2022-07-22T01:08:42;9.63;;;3.93;;
15202;SDS011;7702;51.046;5.184;2022-07-22T01:11:09;9.50;;;4.63;;
15202;SDS011;7702;51.046;5.184;2022-07-22T01:13:36;8.77;;;4.27;;
15202;SDS011;7702;51.046;5.184;2022-07-22T01:16:02;10.70;;;4.03;;
15202;SDS011;7702;51.046;5.184;2022-07-22T01:18:29;7.47;;;3.67;;
15202;SDS011;7702;51.046;5.184;2022-07-22T01:20:55;8.37;;;4.03;;
15202;SDS011;7702;51.046;5.184;2022-07-22T01:23:21;6.43;;;3.90;;
15202;SDS011;7702;51.046;5.184;2022-07-22T01:25:47;7.53;;;4.53;;
15202;SDS011;7702;51.046;5.184;2022-07-22T01:28:13;9.60;;;3.87;;
15202;SDS011;7702;51.046;5.184;2022-07-22T01:30:39;10.73;;;4.23;;
15202;SDS011;7702;51.046;5.184;2022-07-22T01:33:05;7.63;;;4.00;;
15202;SDS011;7702;51.046;5.184;2022-07-22T01:35:31;9.27;;;5.27;;
15202;SDS011;7702;51.046;5.184;2022-07-22T01:37:56;10.00;;;3.83;;
15202;SDS011;7702;51.046;5.184;2022-07-22T01:40:22;6.57;;;4.10;;
15202;SDS011;7702;51.046;5.184;2022-07-22T01:42:48;8.70;;;4.90;;
15202;SDS011;7702;51.046;5.184;2022-07-22T01:45:13;9.43;;;4.40;;
15202;SDS011;7702;51.046;5.184;2022-07-22T01:47:39;9.80;;;4.30;;
15202;SDS011;7702;51.046;5.184;2022-07-22T01:50:05;10.40;;;4.27;;
15202;SDS011;7702;51.046;5.184;2022-07-22T01:52:33;7.90;;;4.20;;
15202;SDS011;7702;51.046;5.184;2022-07-22T01:54:58;9.43;;;3.83;;
15202;SDS011;7702;51.046;5.184;2022-07-22T01:57:24;7.63;;;3.70;;
15202;SDS011;7702;51.046;5.184;2022-07-22T01:59:51;9.33;;;4.27;;
15202;SDS011;7702;51.046;5.184;2022-07-22T02:02:16;6.80;;;4.17;;
15202;SDS011;7702;51.046;5.184;2022-07-22T02:04:42;9.20;;;4.40;;
15202;SDS011;7702;51.046;5.184;2022-07-22T02:07:07;8.17;;;4.50;;
15202;SDS011;7702;51.046;5.184;2022-07-22T02:09:33;10.33;;;5.03;;
15202;SDS011;7702;51.046;5.184;2022-07-22T02:11:59;8.83;;;4.50;;
15202;SDS011;7702;51.046;5.184;2022-07-22T02:14:25;11.47;;;4.77;;
15202;SDS011;7702;51.046;5.184;2022-07-22T02:16:51;10.10;;;5.07;;
15202;SDS011;7702;51.046;5.184;2022-07-22T02:19:16;9.43;;;4.77;;
15202;SDS011;7702;51.046;5.184;2022-07-22T02:21:42;6.00;;;4.30;;
15202;SDS011;7702;51.046;5.184;2022-07-22T02:24:07;12.83;;;5.17;;
15202;SDS011;7702;51.046;5.184;2022-07-22T02:26:33;11.07;;;5.43;;
15202;SDS011;7702;51.046;5.184;2022-07-22T02:28:59;10.07;;;5.03;;
15202;SDS011;7702;51.046;5.184;2022-07-22T02:31:25;10.57;;;5.33;;
15202;SDS011;7702;51.046;5.184;2022-07-22T02:33:51;8.17;;;4.97;;
15202;SDS011;7702;51.046;5.184;2022-07-22T02:36:16;8.57;;;5.00;;
15202;SDS011;7702;51.046;5.184;2022-07-22T02:38:42;9.67;;;5.87;;
15202;SDS011;7702;51.046;5.184;2022-07-22T02:41:09;10.57;;;5.00;;
15202;SDS011;7702;51.046;5.184;2022-07-22T02:43:34;10.50;;;5.77;;
15202;SDS011;7702;51.046;5.184;2022-07-22T02:46:00;6.83;;;5.10;;
15202;SDS011;7702;51.046;5.184;2022-07-22T02:48:26;15.00;;;6.17;;
15202;SDS011;7702;51.046;5.184;2022-07-22T02:50:51;11.03;;;6.33;;
15202;SDS011;7702;51.046;5.184;2022-07-22T02:53:18;10.67;;;5.20;;
15202;SDS011;7702;51.046;5.184;2022-07-22T02:55:43;10.93;;;5.83;;
15202;SDS011;7702;51.046;5.184;2022-07-22T02:58:09;11.57;;;5.93;;
15202;SDS011;7702;51.046;5.184;2022-07-22T03:00:35;8.63;;;5.97;;
15202;SDS011;7702;51.046;5.184;2022-07-22T03:03:04;10.67;;;5.60;;
15202;SDS011;7702;51.046;5.184;2022-07-22T03:05:30;14.77;;;5.90;;
15202;SDS011;7702;51.046;5.184;2022-07-22T03:07:56;10.37;;;5.83;;
15202;SDS011;7702;51.046;5.184;2022-07-22T03:10:22;11.90;;;5.80;;
15202;SDS011;7702;51.046;5.184;2022-07-22T03:12:48;8.50;;;5.17;;
15202;SDS011;7702;51.046;5.184;2022-07-22T03:15:13;10.00;;;5.03;;
15202;SDS011;7702;51.046;5.184;2022-07-22T03:17:39;7.93;;;5.33;;
15202;SDS011;7702;51.046;5.184;2022-07-22T03:20:06;10.90;;;5.97;;
15202;SDS011;7702;51.046;5.184;2022-07-22T03:22:33;8.63;;;5.53;;
15202;SDS011;7702;51.046;5.184;2022-07-22T03:24:59;7.63;;;5.07;;
15202;SDS011;7702;51.046;5.184;2022-07-22T03:27:25;10.23;;;5.87;;
15202;SDS011;7702;51.046;5.184;2022-07-22T03:29:52;8.80;;;6.03;;
15202;SDS011;7702;51.046;5.184;2022-07-22T03:32:18;9.63;;;6.13;;
15202;SDS011;7702;51.046;5.184;2022-07-22T03:34:44;10.73;;;5.97;;
15202;SDS011;7702;51.046;5.184;2022-07-22T03:37:10;9.97;;;5.87;;
15202;SDS011;7702;51.046;5.184;2022-07-22T03:39:35;9.70;;;5.43;;
15202;SDS011;7702;51.046;5.184;2022-07-22T03:42:01;9.80;;;6.00;;
15202;SDS011;7702;51.046;5.184;2022-07-22T03:44:27;8.93;;;5.47;;
15202;SDS011;7702;51.046;5.184;2022-07-22T03:46:53;7.10;;;5.50;;
15202;SDS011;7702;51.046;5.184;2022-07-22T03:49:19;8.70;;;6.30;;
15202;SDS011;7702;51.046;5.184;2022-07-22T03:51:45;10.00;;;6.50;;
15202;SDS011;7702;51.046;5.184;2022-07-22T03:54:11;10.00;;;5.57;;
15202;SDS011;7702;51.046;5.184;2022-07-22T03:56:36;11.70;;;6.67;;
15202;SDS011;7702;51.046;5.184;2022-07-22T03:59:02;9.70;;;6.00;;
15202;SDS011;7702;51.046;5.184;2022-07-22T04:01:28;10.63;;;6.00;;
15202;SDS011;7702;51.046;5.184;2022-07-22T04:03:54;13.17;;;6.57;;
15202;SDS011;7702;51.046;5.184;2022-07-22T04:06:20;8.63;;;5.80;;
15202;SDS011;7702;51.046;5.184;2022-07-22T04:08:45;11.10;;;6.23;;
15202;SDS011;7702;51.046;5.184;2022-07-22T04:11:11;7.00;;;5.60;;
15202;SDS011;7702;51.046;5.184;2022-07-22T04:13:37;12.00;;;6.33;;
15202;SDS011;7702;51.046;5.184;2022-07-22T04:16:03;10.77;;;6.20;;
15202;SDS011;7702;51.046;5.184;2022-07-22T04:18:30;9.73;;;5.87;;
15202;SDS011;7702;51.046;5.184;2022-07-22T04:20:56;10.63;;;6.37;;
15202;SDS011;7702;51.046;5.184;2022-07-22T04:23:22;11.73;;;6.80;;
15202;SDS011;7702;51.046;5.184;2022-07-22T04:25:47;11.43;;;6.67;;
15202;SDS011;7702;51.046;5.184;2022-07-22T04:28:15;12.53;;;7.17;;
15202;SDS011;7702;51.046;5.184;2022-07-22T04:30:40;10.77;;;6.30;;
15202;SDS011;7702;51.046;5.184;2022-07-22T04:33:06;12.10;;;6.40;;
15202;SDS011;7702;51.046;5.184;2022-07-22T04:35:32;9.03;;;6.80;;
15202;SDS011;7702;51.046;5.184;2022-07-22T04:37:58;9.30;;;5.97;;
15202;SDS011;7702;51.046;5.184;2022-07-22T04:40:24;14.60;;;6.17;;
15202;SDS011;7702;51.046;5.184;2022-07-22T04:42:50;10.00;;;5.97;;
15202;SDS011;7702;51.046;5.184;2022-07-22T04:45:15;10.10;;;6.03;;
15202;SDS011;7702;51.046;5.184;2022-07-22T04:47:41;11.73;;;7.13;;
15202;SDS011;7702;51.046;5.184;2022-07-22T04:50:07;15.53;;;6.70;;
15202;SDS011;7702;51.046;5.184;2022-07-22T04:52:34;12.30;;;7.20;;
15202;SDS011;7702;51.046;5.184;2022-07-22T04:54:59;12.47;;;7.33;;
15202;SDS011;7702;51.046;5.184;2022-07-22T04:57:25;7.07;;;6.13;;
15202;SDS011;7702;51.046;5.184;2022-07-22T04:59:51;12.07;;;7.17;;
15202;SDS011;7702;51.046;5.184;2022-07-22T05:02:18;11.90;;;6.80;;
15202;SDS011;7702;51.046;5.184;2022-07-22T05:04:44;12.73;;;7.33;;
15202;SDS011;7702;51.046;5.184;2022-07-22T05:07:10;11.47;;;7.67;;
15202;SDS011;7702;51.046;5.184;2022-07-22T05:09:36;9.60;;;7.07;;
15202;SDS011;7702;51.046;5.184;2022-07-22T05:12:02;11.13;;;7.27;;
15202;SDS011;7702;51.046;5.184;2022-07-22T05:14:28;14.40;;;7.83;;
15202;SDS011;7702;51.046;5.184;2022-07-22T05:16:53;12.93;;;8.23;;
15202;SDS011;7702;51.046;5.184;2022-07-22T05:19:19;13.13;;;6.87;;
15202;SDS011;7702;51.046;5.184;2022-07-22T05:21:45;13.77;;;6.77;;
15202;SDS011;7702;51.046;5.184;2022-07-22T05:24:11;11.43;;;7.40;;
15202;SDS011;7702;51.046;5.184;2022-07-22T05:26:37;10.60;;;7.47;;
15202;SDS011;7702;51.046;5.184;2022-07-22T05:29:03;12.83;;;6.93;;
15202;SDS011;7702;51.046;5.184;2022-07-22T05:31:28;13.40;;;7.53;;
15202;SDS011;7702;51.046;5.184;2022-07-22T05:33:55;12.00;;;7.33;;
15202;SDS011;7702;51.046;5.184;2022-07-22T05:36:21;8.90;;;6.60;;
15202;SDS011;7702;51.046;5.184;2022-07-22T05:38:47;10.23;;;6.83;;
15202;SDS011;7702;51.046;5.184;2022-07-22T05:41:12;9.50;;;6.07;;
15202;SDS011;7702;51.046;5.184;2022-07-22T05:43:38;10.77;;;6.73;;
15202;SDS011;7702;51.046;5.184;2022-07-22T05:46:04;12.87;;;6.40;;
15202;SDS011;7702;51.046;5.184;2022-07-22T05:48:30;7.67;;;6.07;;
15202;SDS011;7702;51.046;5.184;2022-07-22T05:50:56;11.07;;;6.07;;
15202;SDS011;7702;51.046;5.184;2022-07-22T05:53:22;9.07;;;5.83;;
15202;SDS011;7702;51.046;5.184;2022-07-22T05:55:47;8.97;;;6.17;;
15202;SDS011;7702;51.046;5.184;2022-07-22T05:58:13;13.87;;;6.27;;
15202;SDS011;7702;51.046;5.184;2022-07-22T06:00:39;9.80;;;6.10;;
15202;SDS011;7702;51.046;5.184;2022-07-22T06:03:05;10.43;;;5.80;;
15202;SDS011;7702;51.046;5.184;2022-07-22T06:05:31;5.30;;;4.80;;
15202;SDS011;7702;51.046;5.184;2022-07-22T06:07:56;8.10;;;5.13;;
15202;SDS011;7702;51.046;5.184;2022-07-22T06:10:22;8.63;;;5.33;;
15202;SDS011;7702;51.046;5.184;2022-07-22T06:12:47;7.07;;;4.83;;
15202;SDS011;7702;51.046;5.184;2022-07-22T06:15:13;6.30;;;4.33;;
15202;SDS011;7702;51.046;5.184;2022-07-22T06:17:39;7.23;;;4.30;;
15202;SDS011;7702;51.046;5.184;2022-07-22T06:20:05;6.53;;;4.17;;
15202;SDS011;7702;51.046;5.184;2022-07-22T06:22:31;8.13;;;4.80;;
15202;SDS011;7702;51.046;5.184;2022-07-22T06:24:57;5.30;;;3.90;;
15202;SDS011;7702;51.046;5.184;2022-07-22T06:27:23;8.13;;;4.23;;
15202;SDS011;7702;51.046;5.184;2022-07-22T06:29:48;7.63;;;3.77;;
15202;SDS011;7702;51.046;5.184;2022-07-22T06:32:14;7.27;;;3.73;;
15202;SDS011;7702;51.046;5.184;2022-07-22T06:34:40;9.43;;;3.60;;
15202;SDS011;7702;51.046;5.184;2022-07-22T06:37:05;6.20;;;2.77;;
15202;SDS011;7702;51.046;5.184;2022-07-22T06:39:31;6.53;;;2.77;;
15202;SDS011;7702;51.046;5.184;2022-07-22T06:41:57;4.60;;;2.80;;
15202;SDS011;7702;51.046;5.184;2022-07-22T06:44:23;4.87;;;3.03;;
15202;SDS011;7702;51.046;5.184;2022-07-22T06:46:49;5.33;;;2.87;;
15202;SDS011;7702;51.046;5.184;2022-07-22T06:49:14;5.10;;;2.63;;
15202;SDS011;7702;51.046;5.184;2022-07-22T06:51:40;4.67;;;2.50;;
15202;SDS011;7702;51.046;5.184;2022-07-22T06:54:06;4.53;;;2.10;;
15202;SDS011;7702;51.046;5.184;2022-07-22T06:56:31;5.17;;;2.80;;
15202;SDS011;7702;51.046;5.184;2022-07-22T06:58:57;3.03;;;2.23;;
15202;SDS011;7702;51.046;5.184;2022-07-22T07:01:23;3.77;;;2.20;;
15202;SDS011;7702;51.046;5.184;2022-07-22T07:03:48;2.07;;;1.87;;
15202;SDS011;7702;51.046;5.184;2022-07-22T07:06:14;2.13;;;1.93;;
15202;SDS011;7702;51.046;5.184;2022-07-22T07:08:40;5.03;;;2.10;;
15202;SDS011;7702;51.046;5.184;2022-07-22T07:11:05;4.87;;;1.90;;
15202;SDS011;7702;51.046;5.184;2022-07-22T07:13:31;2.80;;;1.60;;
15202;SDS011;7702;51.046;5.184;2022-07-22T07:15:57;4.17;;;2.10;;
15202;SDS011;7702;51.046;5.184;2022-07-22T07:18:23;5.07;;;2.10;;
15202;SDS011;7702;51.046;5.184;2022-07-22T07:20:49;3.10;;;2.10;;
15202;SDS011;7702;51.046;5.184;2022-07-22T07:23:15;2.53;;;2.03;;
15202;SDS011;7702;51.046;5.184;2022-07-22T07:25:41;2.90;;;1.87;;
15202;SDS011;7702;51.046;5.184;2022-07-22T07:28:07;4.97;;;1.90;;
15202;SDS011;7702;51.046;5.184;2022-07-22T07:30:33;28.23;;;4.07;;
15202;SDS011;7702;51.046;5.184;2022-07-22T07:32:59;3.10;;;2.00;;
15202;SDS011;7702;51.046;5.184;2022-07-22T07:35:26;3.03;;;1.90;;
15202;SDS011;7702;51.046;5.184;2022-07-22T07:37:52;5.27;;;2.27;;
15202;SDS011;7702;51.046;5.184;2022-07-22T07:40:18;3.27;;;2.00;;
15202;SDS011;7702;51.046;5.184;2022-07-22T07:42:44;3.30;;;2.10;;
15202;SDS011;7702;51.046;5.184;2022-07-22T07:45:10;3.33;;;2.00;;
15202;SDS011;7702;51.046;5.184;2022-07-22T07:47:35;3.20;;;1.60;;
15202;SDS011;7702;51.046;5.184;2022-07-22T07:50:02;4.90;;;2.00;;
15202;SDS011;7702;51.046;5.184;2022-07-22T07:52:29;3.63;;;2.33;;
15202;SDS011;7702;51.046;5.184;2022-07-22T07:54:55;4.50;;;2.10;;
15202;SDS011;7702;51.046;5.184;2022-07-22T07:57:21;2.67;;;1.70;;
15202;SDS011;7702;51.046;5.184;2022-07-22T07:59:48;2.43;;;1.90;;
15202;SDS011;7702;51.046;5.184;2022-07-22T08:02:13;3.70;;;2.30;;
15202;SDS011;7702;51.046;5.184;2022-07-22T08:04:39;3.10;;;1.77;;
15202;SDS011;7702;51.046;5.184;2022-07-22T08:07:05;1.77;;;1.60;;
15202;SDS011;7702;51.046;5.184;2022-07-22T08:09:32;2.80;;;1.60;;
15202;SDS011;7702;51.046;5.184;2022-07-22T08:12:00;3.00;;;1.73;;
15202;SDS011;7702;51.046;5.184;2022-07-22T08:14:26;3.50;;;2.30;;
15202;SDS011;7702;51.046;5.184;2022-07-22T08:16:52;2.37;;;1.97;;
15202;SDS011;7702;51.046;5.184;2022-07-22T08:19:18;4.43;;;2.03;;
15202;SDS011;7702;51.046;5.184;2022-07-22T08:21:43;4.53;;;1.87;;
15202;SDS011;7702;51.046;5.184;2022-07-22T08:24:09;4.80;;;2.57;;
15202;SDS011;7702;51.046;5.184;2022-07-22T08:26:35;3.80;;;1.83;;
15202;SDS011;7702;51.046;5.184;2022-07-22T08:29:02;4.80;;;2.23;;
15202;SDS011;7702;51.046;5.184;2022-07-22T08:31:29;2.13;;;1.93;;
15202;SDS011;7702;51.046;5.184;2022-07-22T08:33:56;3.80;;;2.00;;
15202;SDS011;7702;51.046;5.184;2022-07-22T08:36:24;1.90;;;1.80;;
15202;SDS011;7702;51.046;5.184;2022-07-22T08:38:49;4.67;;;1.93;;
15202;SDS011;7702;51.046;5.184;2022-07-22T08:41:16;3.03;;;1.90;;
15202;SDS011;7702;51.046;5.184;2022-07-22T08:43:43;2.67;;;1.80;;
15202;SDS011;7702;51.046;5.184;2022-07-22T08:46:11;2.43;;;1.80;;
15202;SDS011;7702;51.046;5.184;2022-07-22T08:48:38;3.43;;;2.00;;
15202;SDS011;7702;51.046;5.184;2022-07-22T08:51:04;1.90;;;1.80;;
15202;SDS011;7702;51.046;5.184;2022-07-22T08:53:31;4.13;;;2.13;;
15202;SDS011;7702;51.046;5.184;2022-07-22T08:55:57;2.97;;;2.00;;
15202;SDS011;7702;51.046;5.184;2022-07-22T08:58:24;2.67;;;2.40;;
15202;SDS011;7702;51.046;5.184;2022-07-22T09:01:07;2.90;;;2.00;;
15202;SDS011;7702;51.046;5.184;2022-07-22T09:03:43;3.83;;;2.30;;
15202;SDS011;7702;51.046;5.184;2022-07-22T09:06:11;2.50;;;1.80;;
15202;SDS011;7702;51.046;5.184;2022-07-22T09:08:57;4.17;;;1.87;;
15202;SDS011;7702;51.046;5.184;2022-07-22T09:11:25;3.63;;;2.30;;
15202;SDS011;7702;51.046;5.184;2022-07-22T09:13:55;4.53;;;1.90;;
15202;SDS011;7702;51.046;5.184;2022-07-22T09:16:42;3.87;;;2.23;;
15202;SDS011;7702;51.046;5.184;2022-07-22T09:19:10;3.07;;;1.87;;
15202;SDS011;7702;51.046;5.184;2022-07-22T09:21:43;3.40;;;1.93;;
15202;SDS011;7702;51.046;5.184;2022-07-22T09:24:28;2.37;;;1.67;;
15202;SDS011;7702;51.046;5.184;2022-07-22T09:26:55;4.87;;;2.00;;
15202;SDS011;7702;51.046;5.184;2022-07-22T09:29:21;1.87;;;1.60;;
15202;SDS011;7702;51.046;5.184;2022-07-22T09:31:49;3.43;;;1.57;;
15202;SDS011;7702;51.046;5.184;2022-07-22T09:34:30;4.77;;;2.30;;
15202;SDS011;7702;51.046;5.184;2022-07-22T09:36:59;2.53;;;2.00;;
15202;SDS011;7702;51.046;5.184;2022-07-22T09:39:26;3.27;;;1.73;;
15202;SDS011;7702;51.046;5.184;2022-07-22T09:41:59;3.30;;;2.10;;
15202;SDS011;7702;51.046;5.184;2022-07-22T09:44:26;4.60;;;2.07;;
15202;SDS011;7702;51.046;5.184;2022-07-22T09:46:52;3.07;;;2.03;;
15202;SDS011;7702;51.046;5.184;2022-07-22T09:49:34;3.27;;;1.80;;
15202;SDS011;7702;51.046;5.184;2022-07-22T09:52:05;3.27;;;2.17;;
15202;SDS011;7702;51.046;5.184;2022-07-22T09:54:32;2.90;;;1.90;;
15202;SDS011;7702;51.046;5.184;2022-07-22T09:56:58;2.60;;;2.10;;
15202;SDS011;7702;51.046;5.184;2022-07-22T09:59:24;6.10;;;1.90;;
15202;SDS011;7702;51.046;5.184;2022-07-22T10:01:53;4.97;;;2.13;;
15202;SDS011;7702;51.046;5.184;2022-07-22T10:04:20;3.27;;;2.00;;
15202;SDS011;7702;51.046;5.184;2022-07-22T10:06:48;3.40;;;1.97;;
15202;SDS011;7702;51.046;5.184;2022-07-22T10:09:17;4.50;;;2.20;;
15202;SDS011;7702;51.046;5.184;2022-07-22T10:11:43;3.93;;;2.00;;
15202;SDS011;7702;51.046;5.184;2022-07-22T10:14:13;2.67;;;1.87;;
15202;SDS011;7702;51.046;5.184;2022-07-22T10:16:40;4.10;;;2.20;;
15202;SDS011;7702;51.046;5.184;2022-07-22T10:19:06;4.10;;;2.03;;
15202;SDS011;7702;51.046;5.184;2022-07-22T10:21:33;3.57;;;2.10;;
15202;SDS011;7702;51.046;5.184;2022-07-22T10:24:06;4.30;;;1.90;;
15202;SDS011;7702;51.046;5.184;2022-07-22T10:26:55;2.50;;;1.73;;
15202;SDS011;7702;51.046;5.184;2022-07-22T10:34:40;2.33;;;2.00;;
15202;SDS011;7702;51.046;5.184;2022-07-22T10:40:13;4.70;;;2.57;;
15202;SDS011;7702;51.046;5.184;2022-07-22T10:45:25;3.00;;;2.10;;
15202;SDS011;7702;51.046;5.184;2022-07-22T10:55:29;3.20;;;1.87;;
15202;SDS011;7702;51.046;5.184;2022-07-22T10:57:55;3.47;;;1.90;;
15202;SDS011;7702;51.046;5.184;2022-07-22T11:00:21;2.47;;;2.23;;
15202;SDS011;7702;51.046;5.184;2022-07-22T11:02:47;2.37;;;2.17;;
15202;SDS011;7702;51.046;5.184;2022-07-22T11:05:13;4.10;;;2.23;;
15202;SDS011;7702;51.046;5.184;2022-07-22T11:10:13;4.33;;;2.33;;
15202;SDS011;7702;51.046;5.184;2022-07-22T11:12:41;2.57;;;2.33;;
15202;SDS011;7702;51.046;5.184;2022-07-22T11:15:07;3.80;;;2.50;;
15202;SDS011;7702;51.046;5.184;2022-07-22T11:17:33;3.00;;;2.30;;
15202;SDS011;7702;51.046;5.184;2022-07-22T11:20:00;5.90;;;2.17;;
15202;SDS011;7702;51.046;5.184;2022-07-22T11:22:27;2.40;;;2.20;;
15202;SDS011;7702;51.046;5.184;2022-07-22T11:24:53;3.73;;;2.17;;
15202;SDS011;7702;51.046;5.184;2022-07-22T11:27:19;3.00;;;2.00;;
15202;SDS011;7702;51.046;5.184;2022-07-22T11:29:48;3.30;;;2.60;;
15202;SDS011;7702;51.046;5.184;2022-07-22T11:32:17;3.50;;;2.30;;
15202;SDS011;7702;51.046;5.184;2022-07-22T11:34:45;2.80;;;2.10;;
15202;SDS011;7702;51.046;5.184;2022-07-22T11:37:11;2.77;;;2.00;;
15202;SDS011;7702;51.046;5.184;2022-07-22T11:39:38;3.23;;;2.10;;
15202;SDS011;7702;51.046;5.184;2022-07-22T11:42:04;4.40;;;2.40;;
15202;SDS011;7702;51.046;5.184;2022-07-22T11:44:31;2.47;;;2.20;;
15202;SDS011;7702;51.046;5.184;2022-07-22T11:46:59;4.07;;;2.30;;
15202;SDS011;7702;51.046;5.184;2022-07-22T11:49:26;3.40;;;2.23;;
15202;SDS011;7702;51.046;5.184;2022-07-22T11:51:53;2.27;;;2.07;;
15202;SDS011;7702;51.046;5.184;2022-07-22T11:54:19;2.63;;;2.00;;
15202;SDS011;7702;51.046;5.184;2022-07-22T11:56:45;3.67;;;2.50;;
15202;SDS011;7702;51.046;5.184;2022-07-22T11:59:11;2.73;;;2.30;;
15202;SDS011;7702;51.046;5.184;2022-07-22T12:01:39;8.23;;;2.40;;
15202;SDS011;7702;51.046;5.184;2022-07-22T12:04:09;3.13;;;2.67;;
15202;SDS011;7702;51.046;5.184;2022-07-22T12:06:43;2.63;;;2.03;;
15202;SDS011;7702;51.046;5.184;2022-07-22T12:09:11;2.20;;;2.00;;
15202;SDS011;7702;51.046;5.184;2022-07-22T12:11:48;2.17;;;2.00;;
15202;SDS011;7702;51.046;5.184;2022-07-22T12:14:17;3.90;;;2.10;;
15202;SDS011;7702;51.046;5.184;2022-07-22T12:16:52;2.70;;;2.20;;
15202;SDS011;7702;51.046;5.184;2022-07-22T12:19:23;3.53;;;2.07;;
15202;SDS011;7702;51.046;5.184;2022-07-22T12:24:24;5.63;;;2.20;;
15202;SDS011;7702;51.046;5.184;2022-07-22T12:26:55;2.20;;;2.00;;
15202;SDS011;7702;51.046;5.184;2022-07-22T12:29:23;3.50;;;2.30;;
15202;SDS011;7702;51.046;5.184;2022-07-22T12:31:54;2.10;;;2.00;;
15202;SDS011;7702;51.046;5.184;2022-07-22T12:39:39;2.57;;;2.33;;
15202;SDS011;7702;51.046;5.184;2022-07-22T12:42:17;3.57;;;2.10;;
15202;SDS011;7702;51.046;5.184;2022-07-22T12:45:25;3.67;;;2.30;;
15202;SDS011;7702;51.046;5.184;2022-07-22T12:52:48;2.67;;;2.27;;
15202;SDS011;7702;51.046;5.184;2022-07-22T12:55:14;3.80;;;2.40;;
15202;SDS011;7702;51.046;5.184;2022-07-22T12:57:40;2.80;;;2.10;;
15202;SDS011;7702;51.046;5.184;2022-07-22T13:00:06;3.50;;;2.10;;
15202;SDS011;7702;51.046;5.184;2022-07-22T13:02:32;4.33;;;2.67;;
15202;SDS011;7702;51.046;5.184;2022-07-22T13:04:59;4.33;;;2.13;;
15202;SDS011;7702;51.046;5.184;2022-07-22T13:07:25;3.80;;;2.23;;
15202;SDS011;7702;51.046;5.184;2022-07-22T13:09:50;3.67;;;2.50;;
15202;SDS011;7702;51.046;5.184;2022-07-22T13:12:16;3.10;;;2.23;;
15202;SDS011;7702;51.046;5.184;2022-07-22T13:14:42;2.87;;;2.30;;
15202;SDS011;7702;51.046;5.184;2022-07-22T13:17:07;2.47;;;2.27;;
15202;SDS011;7702;51.046;5.184;2022-07-22T13:19:34;4.70;;;2.70;;
15202;SDS011;7702;51.046;5.184;2022-07-22T13:21:59;2.97;;;2.30;;
15202;SDS011;7702;51.046;5.184;2022-07-22T13:24:25;2.30;;;2.10;;
15202;SDS011;7702;51.046;5.184;2022-07-22T13:26:51;2.50;;;2.00;;
15202;SDS011;7702;51.046;5.184;2022-07-22T13:29:16;2.23;;;1.97;;
15202;SDS011;7702;51.046;5.184;2022-07-22T13:31:42;2.80;;;1.97;;
15202;SDS011;7702;51.046;5.184;2022-07-22T13:34:08;3.33;;;2.40;;
15202;SDS011;7702;51.046;5.184;2022-07-22T13:36:34;2.63;;;2.27;;
15202;SDS011;7702;51.046;5.184;2022-07-22T13:39:00;3.40;;;2.03;;
15202;SDS011;7702;51.046;5.184;2022-07-22T13:41:26;2.27;;;2.07;;
15202;SDS011;7702;51.046;5.184;2022-07-22T13:43:52;9.93;;;3.00;;
15202;SDS011;7702;51.046;5.184;2022-07-22T13:46:18;4.03;;;2.50;;
15202;SDS011;7702;51.046;5.184;2022-07-22T13:48:44;2.67;;;2.43;;
15202;SDS011;7702;51.046;5.184;2022-07-22T13:51:10;3.57;;;3.27;;
15202;SDS011;7702;51.046;5.184;2022-07-22T13:53:36;2.83;;;2.63;;
15202;SDS011;7702;51.046;5.184;2022-07-22T13:56:02;4.57;;;2.43;;
15202;SDS011;7702;51.046;5.184;2022-07-22T13:58:28;3.40;;;2.33;;
15202;SDS011;7702;51.046;5.184;2022-07-22T14:00:55;4.30;;;2.70;;
15202;SDS011;7702;51.046;5.184;2022-07-22T14:03:21;5.90;;;2.70;;
15202;SDS011;7702;51.046;5.184;2022-07-22T14:05:46;5.60;;;2.77;;
15202;SDS011;7702;51.046;5.184;2022-07-22T14:08:12;3.40;;;2.50;;
15202;SDS011;7702;51.046;5.184;2022-07-22T14:10:38;3.20;;;2.40;;
15202;SDS011;7702;51.046;5.184;2022-07-22T14:13:03;3.30;;;2.73;;
15202;SDS011;7702;51.046;5.184;2022-07-22T14:15:31;4.13;;;2.77;;
15202;SDS011;7702;51.046;5.184;2022-07-22T14:17:57;4.23;;;2.50;;
15202;SDS011;7702;51.046;5.184;2022-07-22T14:20:23;6.30;;;2.43;;
15202;SDS011;7702;51.046;5.184;2022-07-22T14:22:49;3.07;;;2.57;;
15202;SDS011;7702;51.046;5.184;2022-07-22T14:25:14;3.77;;;2.70;;
15202;SDS011;7702;51.046;5.184;2022-07-22T14:27:40;2.90;;;2.50;;
15202;SDS011;7702;51.046;5.184;2022-07-22T14:30:06;2.93;;;2.63;;
15202;SDS011;7702;51.046;5.184;2022-07-22T14:32:31;3.33;;;2.37;;
15202;SDS011;7702;51.046;5.184;2022-07-22T14:34:57;3.07;;;2.77;;
15202;SDS011;7702;51.046;5.184;2022-07-22T14:37:23;3.73;;;2.87;;
15202;SDS011;7702;51.046;5.184;2022-07-22T14:39:49;2.87;;;2.30;;
15202;SDS011;7702;51.046;5.184;2022-07-22T14:42:15;3.83;;;2.53;;
15202;SDS011;7702;51.046;5.184;2022-07-22T14:44:41;3.10;;;2.80;;
15202;SDS011;7702;51.046;5.184;2022-07-22T14:47:06;3.07;;;2.60;;
15202;SDS011;7702;51.046;5.184;2022-07-22T14:49:32;2.63;;;2.43;;
15202;SDS011;7702;51.046;5.184;2022-07-22T14:51:58;3.53;;;2.70;;
15202;SDS011;7702;51.046;5.184;2022-07-22T14:54:24;3.77;;;2.63;;
15202;SDS011;7702;51.046;5.184;2022-07-22T14:56:49;4.57;;;2.70;;
15202;SDS011;7702;51.046;5.184;2022-07-22T14:59:15;3.90;;;2.80;;
15202;SDS011;7702;51.046;5.184;2022-07-22T15:01:41;3.03;;;2.70;;
15202;SDS011;7702;51.046;5.184;2022-07-22T15:04:06;3.77;;;2.70;;
15202;SDS011;7702;51.046;5.184;2022-07-22T15:06:32;4.90;;;2.30;;
15202;SDS011;7702;51.046;5.184;2022-07-22T15:08:58;3.10;;;2.90;;
15202;SDS011;7702;51.046;5.184;2022-07-22T15:11:23;3.87;;;2.90;;
15202;SDS011;7702;51.046;5.184;2022-07-22T15:13:49;3.87;;;2.70;;
15202;SDS011;7702;51.046;5.184;2022-07-22T15:16:14;3.33;;;2.50;;
15202;SDS011;7702;51.046;5.184;2022-07-22T15:18:40;4.47;;;2.60;;
15202;SDS011;7702;51.046;5.184;2022-07-22T15:21:06;4.17;;;2.50;;
15202;SDS011;7702;51.046;5.184;2022-07-22T15:23:32;3.27;;;2.97;;
15202;SDS011;7702;51.046;5.184;2022-07-22T15:25:58;4.13;;;2.87;;
15202;SDS011;7702;51.046;5.184;2022-07-22T15:28:25;3.47;;;2.47;;